createdAt,value
2023-03-22T00:00:21.379Z,99746.09
2023-03-22T00:01:10.795Z,99746.44
2023-03-22T00:01:58.944Z,99745.12
2023-03-22T00:02:46.088Z,99747.00
2023-03-22T00:03:33.177Z,99741.78
2023-03-22T00:04:20.270Z,99739.28
2023-03-22T00:05:07.698Z,99739.47
2023-03-22T00:05:58.658Z,99736.59
2023-03-22T00:06:45.909Z,99742.16
2023-03-22T00:07:32.973Z,99740.56
2023-03-22T00:08:19.958Z,99744.44
2023-03-22T00:09:07.037Z,99738.03
2023-03-22T00:09:54.039Z,99746.25
2023-03-22T00:10:42.068Z,99747.38
2023-03-22T00:11:29.123Z,99748.56
2023-03-22T00:12:16.222Z,99745.53
2023-03-22T00:13:03.381Z,99752.22
2023-03-22T00:13:52.811Z,99745.12
2023-03-22T00:14:39.756Z,99743.31
2023-03-22T00:15:29.804Z,99745.53
2023-03-22T00:16:17.735Z,99746.06
2023-03-22T00:17:04.755Z,99745.59
2023-03-22T00:17:52.093Z,99737.13
2023-03-22T00:18:39.102Z,99744.03
2023-03-22T00:19:26.871Z,99741.97
2023-03-22T00:20:13.977Z,99737.13
2023-03-22T00:21:01.241Z,99742.03
2023-03-22T00:21:48.257Z,99738.56
2023-03-22T00:22:35.288Z,99736.63
2023-03-22T00:23:23.430Z,99731.72
2023-03-22T00:24:10.473Z,99732.34
2023-03-22T00:24:57.499Z,99736.34
2023-03-22T00:25:45.469Z,99736.66
2023-03-22T00:26:32.490Z,99741.22
2023-03-22T00:27:19.346Z,99724.19
2023-03-22T00:28:06.368Z,99731.88
2023-03-22T00:28:53.290Z,99729.75
2023-03-22T00:29:40.293Z,99729.75
2023-03-22T00:30:27.228Z,99732.72
2023-03-22T00:31:14.338Z,99731.91
2023-03-22T00:32:01.469Z,99731.16
2023-03-22T00:32:48.448Z,99735.31
2023-03-22T00:33:36.567Z,99725.91
2023-03-22T00:34:23.721Z,99724.38
2023-03-22T00:35:12.014Z,99724.78
2023-03-22T00:36:01.476Z,99725.97
2023-03-22T00:36:48.754Z,99727.06
2023-03-22T00:37:38.886Z,99723.16
2023-03-22T00:38:41.257Z,99720.78
2023-03-22T00:39:28.874Z,99724.47
2023-03-22T00:40:18.147Z,99720.78
2023-03-22T00:41:25.608Z,99722.09
2023-03-22T00:42:12.566Z,99722.28
2023-03-22T00:43:00.011Z,99723.41
2023-03-22T00:43:47.743Z,99719.59
2023-03-22T00:44:34.851Z,99722.41
2023-03-22T00:45:21.841Z,99720.91
2023-03-22T00:46:09.876Z,99718.56
2023-03-22T00:46:56.970Z,99718.56
2023-03-22T00:47:43.998Z,99723.47
2023-03-22T00:48:31.544Z,99717.59
2023-03-22T00:49:19.201Z,99714.53
2023-03-22T00:50:07.533Z,99718.44
2023-03-22T00:50:54.562Z,99710.19
2023-03-22T00:51:41.485Z,99719.41
2023-03-22T00:52:29.854Z,99716.63
2023-03-22T00:53:17.150Z,99720.19
2023-03-22T00:54:04.162Z,99720.53
2023-03-22T00:54:51.652Z,99719.53
2023-03-22T00:55:38.651Z,99713.94
2023-03-22T00:56:29.173Z,99711.44
2023-03-22T00:57:16.590Z,99714.47
2023-03-22T00:58:03.681Z,99722.22
2023-03-22T00:58:50.791Z,99719.19
2023-03-22T00:59:39.088Z,99716.22
2023-03-22T01:00:26.364Z,99722.00
2023-03-22T01:01:16.592Z,99718.13
2023-03-22T01:02:04.492Z,99718.25
2023-03-22T01:02:53.511Z,99720.22
2023-03-22T01:03:41.640Z,99719.34
2023-03-22T01:04:28.883Z,99723.00
2023-03-22T01:05:16.292Z,99720.63
2023-03-22T01:06:03.890Z,99714.41
2023-03-22T01:06:50.860Z,99721.13
2023-03-22T01:07:39.842Z,99722.16
2023-03-22T01:08:33.244Z,99720.28
2023-03-22T01:09:24.185Z,99716.28
2023-03-22T01:10:12.401Z,99711.59
2023-03-22T01:10:59.822Z,99714.62
2023-03-22T01:11:46.852Z,99716.78
2023-03-22T01:12:33.889Z,99710.72
2023-03-22T01:13:20.946Z,99715.03
2023-03-22T01:14:09.976Z,99710.78
2023-03-22T01:14:57.193Z,99710.06
2023-03-22T01:15:44.229Z,99712.56
2023-03-22T01:16:31.250Z,99712.63
2023-03-22T01:17:18.352Z,99707.06
2023-03-22T01:18:05.803Z,99712.63
2023-03-22T01:18:52.797Z,99711.13
2023-03-22T01:19:40.126Z,99711.06
2023-03-22T01:20:27.860Z,99712.75
2023-03-22T01:21:14.872Z,99712.56
2023-03-22T01:22:02.516Z,99718.25
2023-03-22T01:22:49.575Z,99714.53
2023-03-22T01:23:37.122Z,99715.19
2023-03-22T01:24:24.508Z,99718.37
2023-03-22T01:25:11.618Z,99719.59
2023-03-22T01:25:58.688Z,99712.88
2023-03-22T01:26:45.938Z,99718.25
2023-03-22T01:27:32.921Z,99714.53
2023-03-22T01:28:19.966Z,99714.41
2023-03-22T01:29:06.978Z,99713.16
2023-03-22T01:29:53.947Z,99718.50
2023-03-22T01:30:41.676Z,99711.44
2023-03-22T01:31:28.993Z,99711.94
2023-03-22T01:32:16.114Z,99709.25
2023-03-22T01:33:03.106Z,99710.87
2023-03-22T01:33:50.177Z,99714.19
2023-03-22T01:34:37.165Z,99703.53
2023-03-22T01:35:24.473Z,99706.72
2023-03-22T01:36:11.738Z,99705.50
2023-03-22T01:36:58.726Z,99707.66
2023-03-22T01:37:45.949Z,99708.38
2023-03-22T01:38:33.009Z,99707.66
2023-03-22T01:39:20.060Z,99701.78
2023-03-22T01:40:07.677Z,99705.22
2023-03-22T01:40:54.796Z,99700.78
2023-03-22T01:41:41.840Z,99699.91
2023-03-22T01:42:28.931Z,99703.41
2023-03-22T01:43:17.425Z,99701.84
2023-03-22T01:44:18.380Z,99694.91
2023-03-22T01:45:14.074Z,99698.91
2023-03-22T01:46:01.184Z,99699.94
2023-03-22T01:46:49.844Z,99695.38
2023-03-22T01:47:37.834Z,99696.53
2023-03-22T01:48:37.479Z,99692.00
2023-03-22T01:49:32.269Z,99701.47
2023-03-22T01:50:20.064Z,99694.34
2023-03-22T01:51:13.747Z,99688.81
2023-03-22T01:52:12.091Z,99693.38
2023-03-22T01:52:59.855Z,99693.25
2023-03-22T01:53:49.523Z,99691.66
2023-03-22T01:54:45.069Z,99697.56
2023-03-22T01:55:33.552Z,99693.03
2023-03-22T01:56:23.203Z,99692.03
2023-03-22T01:57:10.263Z,99697.44
2023-03-22T01:57:57.219Z,99692.25
2023-03-22T01:58:44.123Z,99694.72
2023-03-22T01:59:31.435Z,99684.84
2023-03-22T02:00:19.344Z,99691.22
2023-03-22T02:01:08.527Z,99688.81
2023-03-22T02:01:56.000Z,99687.25
2023-03-22T02:02:44.462Z,99690.22
2023-03-22T02:03:57.781Z,99694.63
2023-03-22T02:04:46.322Z,99687.66
2023-03-22T02:05:35.129Z,99685.00
2023-03-22T02:06:22.426Z,99687.97
2023-03-22T02:07:15.872Z,99689.41
2023-03-22T02:08:04.164Z,99694.97
2023-03-22T02:08:53.252Z,99691.56
2023-03-22T02:09:41.695Z,99687.91
2023-03-22T02:10:28.992Z,99691.75
2023-03-22T02:11:28.342Z,99694.84
2023-03-22T02:12:20.800Z,99692.41
2023-03-22T02:13:39.179Z,99697.44
2023-03-22T02:15:03.921Z,99696.00
2023-03-22T02:16:16.118Z,99687.97
2023-03-22T02:17:30.322Z,99692.47
2023-03-22T02:18:22.377Z,99700.00
2023-03-22T02:19:31.172Z,99691.38
2023-03-22T02:20:33.242Z,99700.78
2023-03-22T02:21:36.243Z,99696.16
2023-03-22T02:22:58.540Z,99697.06
2023-03-22T02:24:24.973Z,99696.09
2023-03-22T02:25:46.129Z,99696.81
2023-03-22T02:26:59.647Z,99699.94
2023-03-22T02:28:04.630Z,99702.75
2023-03-22T02:29:22.782Z,99699.53
2023-03-22T02:30:50.764Z,99698.09
2023-03-22T02:32:25.894Z,99701.25
2023-03-22T02:33:27.526Z,99698.31
2023-03-22T02:34:36.122Z,99694.25
2023-03-22T02:35:54.221Z,99696.59
2023-03-22T02:36:47.519Z,99697.19
2023-03-22T02:38:12.328Z,99689.69
2023-03-22T02:39:17.980Z,99691.53
2023-03-22T02:40:05.852Z,99692.00
2023-03-22T02:41:12.522Z,99699.06
2023-03-22T02:42:41.414Z,99697.56
2023-03-22T02:43:39.025Z,99691.88
2023-03-22T02:45:01.441Z,99700.84
2023-03-22T02:45:54.711Z,99697.25
2023-03-22T02:46:52.008Z,99700.59
2023-03-22T02:47:57.034Z,99703.66
2023-03-22T02:48:54.671Z,99702.69
2023-03-22T02:49:47.747Z,99707.12
2023-03-22T02:50:46.789Z,99707.50
2023-03-22T02:51:41.874Z,99706.13
2023-03-22T02:52:33.464Z,99698.69
2023-03-22T02:53:23.475Z,99697.31
2023-03-22T02:54:18.680Z,99701.78
2023-03-22T02:55:12.860Z,99698.88
2023-03-22T02:56:02.864Z,99698.72
2023-03-22T02:57:19.461Z,99704.16
2023-03-22T02:58:47.330Z,99707.00
2023-03-22T02:59:38.420Z,99707.72
2023-03-22T03:00:27.346Z,99704.84
2023-03-22T03:01:32.829Z,99710.13
2023-03-22T03:02:21.146Z,99698.03
2023-03-22T03:03:12.076Z,99704.37
2023-03-22T03:04:01.787Z,99704.31
2023-03-22T03:04:50.337Z,99705.66
2023-03-22T03:05:40.582Z,99708.62
2023-03-22T03:06:31.318Z,99708.28
2023-03-22T03:07:23.234Z,99705.75
2023-03-22T03:08:11.488Z,99707.62
2023-03-22T03:09:02.853Z,99714.50
2023-03-22T03:09:50.849Z,99705.38
2023-03-22T03:10:39.746Z,99706.13
2023-03-22T03:11:26.830Z,99707.97
2023-03-22T03:12:16.710Z,99704.53
2023-03-22T03:13:03.888Z,99704.25
2023-03-22T03:13:51.491Z,99702.94
2023-03-22T03:14:38.478Z,99705.78
2023-03-22T03:15:26.212Z,99702.28
2023-03-22T03:16:17.862Z,99705.28
2023-03-22T03:17:10.790Z,99700.28
2023-03-22T03:18:27.711Z,99699.88
2023-03-22T03:19:29.951Z,99700.00
2023-03-22T03:20:35.619Z,99704.37
2023-03-22T03:21:54.356Z,99705.09
2023-03-22T03:22:53.842Z,99703.53
2023-03-22T03:23:53.310Z,99701.59
2023-03-22T03:24:48.628Z,99710.25
2023-03-22T03:25:43.643Z,99709.94
2023-03-22T03:26:55.823Z,99706.41
2023-03-22T03:28:13.119Z,99703.97
2023-03-22T03:29:05.626Z,99705.13
2023-03-22T03:30:05.701Z,99701.47
2023-03-22T03:31:08.421Z,99706.31
2023-03-22T03:32:05.512Z,99707.12
2023-03-22T03:33:05.321Z,99706.50
2023-03-22T03:33:58.966Z,99708.19
2023-03-22T03:34:58.122Z,99701.78
2023-03-22T03:35:50.174Z,99707.88
2023-03-22T03:36:41.047Z,99710.47
2023-03-22T03:37:34.270Z,99711.00
2023-03-22T03:38:27.458Z,99708.03
2023-03-22T03:39:16.314Z,99706.13
2023-03-22T03:40:11.409Z,99710.25
2023-03-22T03:41:14.380Z,99703.66
2023-03-22T03:42:02.321Z,99711.56
2023-03-22T03:42:52.059Z,99711.22
2023-03-22T03:43:39.663Z,99714.09
2023-03-22T03:44:27.316Z,99705.13
2023-03-22T03:45:16.032Z,99707.16
2023-03-22T03:46:03.298Z,99711.91
2023-03-22T03:46:51.459Z,99707.72
2023-03-22T03:47:38.552Z,99702.81
2023-03-22T03:48:29.052Z,99706.06
2023-03-22T03:49:17.234Z,99705.56
2023-03-22T03:50:08.484Z,99702.22
2023-03-22T03:50:56.912Z,99703.53
2023-03-22T03:51:55.351Z,99707.38
2023-03-22T03:52:42.930Z,99711.56
2023-03-22T03:53:30.772Z,99702.13
2023-03-22T03:54:18.221Z,99702.13
2023-03-22T03:55:05.571Z,99707.44
2023-03-22T03:55:52.558Z,99703.16
2023-03-22T03:56:39.547Z,99702.81
2023-03-22T03:57:26.511Z,99708.81
2023-03-22T03:58:13.451Z,99703.47
2023-03-22T03:59:00.662Z,99709.16
2023-03-22T03:59:47.702Z,99702.31
2023-03-22T04:00:34.703Z,99706.44
2023-03-22T04:01:21.718Z,99699.34
2023-03-22T04:02:08.968Z,99709.75
2023-03-22T04:02:56.117Z,99701.97
2023-03-22T04:03:43.124Z,99706.50
2023-03-22T04:04:30.330Z,99704.19
2023-03-22T04:05:17.396Z,99708.53
2023-03-22T04:06:04.473Z,99706.41
2023-03-22T04:06:52.174Z,99703.03
2023-03-22T04:07:39.770Z,99703.25
2023-03-22T04:08:27.319Z,99693.59
2023-03-22T04:09:14.361Z,99709.03
2023-03-22T04:10:01.397Z,99697.91
2023-03-22T04:10:52.486Z,99706.59
2023-03-22T04:11:39.448Z,99704.63
2023-03-22T04:12:26.483Z,99707.31
2023-03-22T04:13:13.513Z,99698.72
2023-03-22T04:14:00.503Z,99705.38
2023-03-22T04:14:47.511Z,99711.97
2023-03-22T04:15:34.483Z,99707.81
2023-03-22T04:16:21.559Z,99711.22
2023-03-22T04:17:09.782Z,99706.16
2023-03-22T04:17:57.310Z,99711.56
2023-03-22T04:18:44.536Z,99704.81
2023-03-22T04:19:31.632Z,99706.16
2023-03-22T04:20:19.769Z,99712.81
2023-03-22T04:21:07.267Z,99710.13
2023-03-22T04:21:54.688Z,99707.06
2023-03-22T04:22:42.553Z,99708.44
2023-03-22T04:23:29.612Z,99705.63
2023-03-22T04:24:16.612Z,99704.53
2023-03-22T04:25:03.924Z,99706.88
2023-03-22T04:25:50.874Z,99702.31
2023-03-22T04:26:38.122Z,99701.13
2023-03-22T04:27:25.091Z,99705.34
2023-03-22T04:28:13.912Z,99705.66
2023-03-22T04:29:03.217Z,99701.13
2023-03-22T04:29:51.325Z,99703.47
2023-03-22T04:30:39.184Z,99708.19
2023-03-22T04:31:26.562Z,99709.50
2023-03-22T04:32:13.594Z,99709.13
2023-03-22T04:33:01.563Z,99709.66
2023-03-22T04:33:50.008Z,99707.81
2023-03-22T04:34:37.059Z,99711.50
2023-03-22T04:35:24.808Z,99706.00
2023-03-22T04:36:16.292Z,99702.94
2023-03-22T04:37:03.353Z,99704.25
2023-03-22T04:37:51.917Z,99712.22
2023-03-22T04:38:39.780Z,99707.66
2023-03-22T04:39:26.892Z,99710.59
2023-03-22T04:40:17.448Z,99709.88
2023-03-22T04:41:05.744Z,99704.16
2023-03-22T04:41:52.654Z,99709.69
2023-03-22T04:42:39.651Z,99706.16
2023-03-22T04:43:27.651Z,99706.34
2023-03-22T04:44:14.740Z,99713.00
2023-03-22T04:45:04.166Z,99705.63
2023-03-22T04:45:51.119Z,99710.00
2023-03-22T04:46:38.660Z,99705.56
2023-03-22T04:47:25.783Z,99707.06
2023-03-22T04:48:12.832Z,99702.44
2023-03-22T04:49:00.161Z,99708.19
2023-03-22T04:49:47.174Z,99709.56
2023-03-22T04:50:34.082Z,99710.25
2023-03-22T04:51:21.178Z,99706.00
2023-03-22T04:52:08.390Z,99707.31
2023-03-22T04:52:55.550Z,99709.69
2023-03-22T04:53:42.631Z,99707.12
2023-03-22T04:54:29.614Z,99698.44
2023-03-22T04:55:16.813Z,99698.88
2023-03-22T04:56:05.860Z,99706.44
2023-03-22T04:56:53.185Z,99706.28
2023-03-22T04:57:40.149Z,99705.41
2023-03-22T04:58:27.514Z,99697.59
2023-03-22T04:59:14.962Z,99707.66
2023-03-22T05:00:01.953Z,99704.00
2023-03-22T05:00:48.991Z,99702.88
2023-03-22T05:01:36.186Z,99704.69
2023-03-22T05:02:23.182Z,99707.38
2023-03-22T05:03:10.617Z,99702.75
2023-03-22T05:03:57.647Z,99705.50
2023-03-22T05:04:45.082Z,99700.91
2023-03-22T05:05:32.240Z,99705.75
2023-03-22T05:06:19.204Z,99712.63
2023-03-22T05:07:06.362Z,99700.84
2023-03-22T05:07:53.351Z,99707.56
2023-03-22T05:08:40.571Z,99711.56
2023-03-22T05:09:27.602Z,99703.94
2023-03-22T05:10:14.791Z,99708.12
2023-03-22T05:11:07.783Z,99706.94
2023-03-22T05:11:54.714Z,99714.16
2023-03-22T05:12:41.700Z,99712.69
2023-03-22T05:13:28.632Z,99709.88
2023-03-22T05:14:15.874Z,99709.31
2023-03-22T05:15:04.489Z,99709.81
2023-03-22T05:15:52.306Z,99712.34
2023-03-22T05:16:42.079Z,99703.94
2023-03-22T05:17:29.050Z,99717.78
2023-03-22T05:18:16.911Z,99710.16
2023-03-22T05:19:04.160Z,99712.41
2023-03-22T05:19:52.113Z,99712.13
2023-03-22T05:20:39.413Z,99713.91
2023-03-22T05:21:29.984Z,99709.28
2023-03-22T05:22:17.471Z,99717.47
2023-03-22T05:23:05.380Z,99718.13
2023-03-22T05:23:52.421Z,99714.03
2023-03-22T05:24:39.453Z,99721.78
2023-03-22T05:25:26.456Z,99709.78
2023-03-22T05:26:16.269Z,99718.31
2023-03-22T05:27:04.027Z,99724.56
2023-03-22T05:27:54.437Z,99721.50
2023-03-22T05:28:41.730Z,99720.75
2023-03-22T05:29:29.109Z,99725.75
2023-03-22T05:30:16.977Z,99726.87
2023-03-22T05:31:05.834Z,99722.16
2023-03-22T05:31:52.958Z,99723.53
2023-03-22T05:32:43.369Z,99727.94
2023-03-22T05:33:30.403Z,99724.84
2023-03-22T05:34:17.628Z,99728.66
2023-03-22T05:35:05.604Z,99723.53
2023-03-22T05:35:52.760Z,99727.53
2023-03-22T05:36:39.989Z,99721.31
2023-03-22T05:37:26.971Z,99726.50
2023-03-22T05:38:13.960Z,99722.81
2023-03-22T05:39:00.842Z,99718.06
2023-03-22T05:39:47.956Z,99720.19
2023-03-22T05:40:34.969Z,99719.19
2023-03-22T05:41:22.274Z,99727.06
2023-03-22T05:42:09.254Z,99726.50
2023-03-22T05:42:56.333Z,99725.31
2023-03-22T05:43:43.314Z,99718.87
2023-03-22T05:44:30.515Z,99726.41
2023-03-22T05:45:17.893Z,99726.87
2023-03-22T05:46:06.824Z,99722.97
2023-03-22T05:46:53.882Z,99730.12
2023-03-22T05:47:41.891Z,99725.38
2023-03-22T05:48:28.944Z,99729.16
2023-03-22T05:49:16.277Z,99731.88
2023-03-22T05:50:03.417Z,99733.75
2023-03-22T05:50:50.390Z,99728.34
2023-03-22T05:51:41.873Z,99733.28
2023-03-22T05:52:29.059Z,99732.66
2023-03-22T05:53:16.364Z,99729.00
2023-03-22T05:54:03.295Z,99739.06
2023-03-22T05:54:50.260Z,99731.78
2023-03-22T05:55:37.268Z,99738.81
2023-03-22T05:56:24.680Z,99732.09
2023-03-22T05:57:11.758Z,99739.56
2023-03-22T05:57:59.979Z,99736.84
2023-03-22T05:58:47.165Z,99736.19
2023-03-22T05:59:34.334Z,99738.34
2023-03-22T06:00:22.079Z,99737.59
2023-03-22T06:01:11.852Z,99733.50
2023-03-22T06:01:58.904Z,99731.44
2023-03-22T06:02:48.088Z,99737.41
2023-03-22T06:03:35.244Z,99738.12
2023-03-22T06:04:22.487Z,99731.69
2023-03-22T06:05:11.430Z,99738.78
2023-03-22T06:05:58.407Z,99737.56
2023-03-22T06:06:45.379Z,99743.69
2023-03-22T06:07:32.329Z,99737.88
2023-03-22T06:08:19.236Z,99736.88
2023-03-22T06:09:16.376Z,99741.06
2023-03-22T06:10:04.829Z,99742.53
2023-03-22T06:10:52.628Z,99738.09
2023-03-22T06:11:39.551Z,99747.63
2023-03-22T06:12:29.540Z,99748.03
2023-03-22T06:13:18.148Z,99748.13
2023-03-22T06:14:05.174Z,99746.34
2023-03-22T06:14:52.676Z,99752.22
2023-03-22T06:15:39.658Z,99754.00
2023-03-22T06:16:26.859Z,99752.59
2023-03-22T06:17:13.887Z,99753.50
2023-03-22T06:18:00.967Z,99752.28
2023-03-22T06:18:48.064Z,99754.78
2023-03-22T06:19:35.055Z,99747.31
2023-03-22T06:20:22.079Z,99749.84
2023-03-22T06:21:09.102Z,99752.38
2023-03-22T06:21:56.131Z,99743.44
2023-03-22T06:22:43.170Z,99740.78
2023-03-22T06:23:30.143Z,99746.28
2023-03-22T06:24:17.215Z,99744.66
2023-03-22T06:25:44.525Z,99743.19
2023-03-22T06:26:31.481Z,99752.28
2023-03-22T06:27:18.437Z,99746.88
2023-03-22T06:28:07.552Z,99750.59
2023-03-22T06:28:55.510Z,99750.41
2023-03-22T06:29:42.446Z,99751.50
2023-03-22T06:30:29.575Z,99754.91
2023-03-22T06:31:16.519Z,99753.16
2023-03-22T06:32:04.002Z,99754.47
2023-03-22T06:32:50.903Z,99757.41
2023-03-22T06:33:37.804Z,99757.50
2023-03-22T06:34:24.666Z,99765.25
2023-03-22T06:35:11.605Z,99761.31
2023-03-22T06:35:59.944Z,99764.53
2023-03-22T06:36:47.040Z,99765.75
2023-03-22T06:37:33.880Z,99772.84
2023-03-22T06:38:20.802Z,99762.91
2023-03-22T06:39:08.193Z,99765.47
2023-03-22T06:39:55.078Z,99760.75
2023-03-22T06:40:42.229Z,99766.16
2023-03-22T06:41:29.311Z,99765.56
2023-03-22T06:42:16.409Z,99764.97
2023-03-22T06:43:06.974Z,99767.06
2023-03-22T06:43:53.908Z,99771.06
2023-03-22T06:44:44.066Z,99769.03
2023-03-22T06:45:33.605Z,99768.22
2023-03-22T06:46:22.743Z,99776.41
2023-03-22T06:47:09.809Z,99770.19
2023-03-22T06:47:58.747Z,99771.66
2023-03-22T06:48:45.763Z,99768.56
2023-03-22T06:49:32.628Z,99765.91
2023-03-22T06:50:19.481Z,99760.28
2023-03-22T06:51:06.811Z,99760.34
2023-03-22T06:51:54.107Z,99763.00
2023-03-22T06:52:40.972Z,99762.41
2023-03-22T06:53:27.928Z,99764.53
2023-03-22T06:54:16.246Z,99767.91
2023-03-22T06:55:03.246Z,99765.00
2023-03-22T06:55:50.162Z,99768.38
2023-03-22T06:56:37.020Z,99761.50
2023-03-22T06:57:23.852Z,99762.31
2023-03-22T06:58:10.891Z,99767.72
2023-03-22T06:58:58.726Z,99760.66
2023-03-22T06:59:45.774Z,99768.00
2023-03-22T07:00:34.485Z,99768.62
2023-03-22T07:01:21.877Z,99767.81
2023-03-22T07:02:12.026Z,99773.63
2023-03-22T07:03:01.708Z,99765.28
2023-03-22T07:03:48.647Z,99764.87
2023-03-22T07:04:35.606Z,99768.00
2023-03-22T07:05:22.578Z,99756.13
2023-03-22T07:06:09.674Z,99765.75
2023-03-22T07:06:57.149Z,99767.19
2023-03-22T07:07:44.086Z,99766.56
2023-03-22T07:08:31.317Z,99766.78
2023-03-22T07:09:18.568Z,99764.91
2023-03-22T07:10:10.019Z,99770.53
2023-03-22T07:10:57.152Z,99768.47
2023-03-22T07:11:44.011Z,99770.13
2023-03-22T07:12:30.868Z,99773.25
2023-03-22T07:13:17.934Z,99770.13
2023-03-22T07:14:04.867Z,99770.50
2023-03-22T07:14:51.815Z,99774.09
2023-03-22T07:15:38.736Z,99768.66
2023-03-22T07:16:25.943Z,99778.91
2023-03-22T07:17:14.350Z,99769.69
2023-03-22T07:18:02.180Z,99776.34
2023-03-22T07:18:49.170Z,99774.69
2023-03-22T07:19:36.284Z,99769.66
2023-03-22T07:20:25.187Z,99775.72
2023-03-22T07:21:12.475Z,99774.66
2023-03-22T07:21:59.382Z,99769.88
2023-03-22T07:22:46.711Z,99771.72
2023-03-22T07:23:33.588Z,99771.69
2023-03-22T07:24:20.546Z,99778.16
2023-03-22T07:25:07.796Z,99772.47
2023-03-22T07:25:56.275Z,99772.87
2023-03-22T07:26:43.361Z,99775.13
2023-03-22T07:27:30.237Z,99768.59
2023-03-22T07:28:17.197Z,99775.47
2023-03-22T07:29:04.077Z,99774.84
2023-03-22T07:29:51.196Z,99774.44
2023-03-22T07:30:39.051Z,99776.53
2023-03-22T07:31:26.298Z,99778.03
2023-03-22T07:32:13.266Z,99774.44
2023-03-22T07:33:00.865Z,99779.22
2023-03-22T07:33:48.595Z,99778.28
2023-03-22T07:34:35.547Z,99782.47
2023-03-22T07:35:24.496Z,99778.72
2023-03-22T07:36:13.128Z,99784.91
2023-03-22T07:37:02.100Z,99783.34
2023-03-22T07:37:49.099Z,99785.63
2023-03-22T07:38:36.181Z,99788.09
2023-03-22T07:39:25.019Z,99787.84
2023-03-22T07:40:12.660Z,99785.13
2023-03-22T07:40:59.529Z,99790.28
2023-03-22T07:41:46.534Z,99784.16
2023-03-22T07:42:37.126Z,99782.22
2023-03-22T07:43:24.222Z,99787.34
2023-03-22T07:44:17.607Z,99786.31
2023-03-22T07:45:05.504Z,99782.94
2023-03-22T07:45:53.351Z,99785.03
2023-03-22T07:46:40.352Z,99784.97
2023-03-22T07:47:40.437Z,99780.75
2023-03-22T07:48:29.027Z,99783.75
2023-03-22T07:49:16.012Z,99793.19
2023-03-22T07:50:02.985Z,99786.63
2023-03-22T07:50:50.404Z,99787.53
2023-03-22T07:51:37.235Z,99783.97
2023-03-22T07:52:24.085Z,99786.63
2023-03-22T07:53:11.566Z,99785.44
2023-03-22T07:53:58.466Z,99781.72
2023-03-22T07:54:45.556Z,99785.34
2023-03-22T07:55:32.356Z,99785.00
2023-03-22T07:56:19.210Z,99783.94
2023-03-22T07:57:06.967Z,99780.37
2023-03-22T07:57:58.030Z,99785.59
2023-03-22T07:58:44.993Z,99788.16
2023-03-22T07:59:32.242Z,99783.09
2023-03-22T08:00:19.547Z,99787.94
2023-03-22T08:01:09.246Z,99790.91
2023-03-22T08:01:56.161Z,99777.59
2023-03-22T08:02:46.050Z,99790.88
2023-03-22T08:03:35.221Z,99783.94
2023-03-22T08:04:22.762Z,99784.12
2023-03-22T08:05:09.868Z,99788.28
2023-03-22T08:06:01.377Z,99789.31
2023-03-22T08:06:49.321Z,99789.84
2023-03-22T08:07:36.472Z,99781.66
2023-03-22T08:08:23.392Z,99776.69
2023-03-22T08:09:12.333Z,99783.72
2023-03-22T08:09:59.401Z,99783.34
2023-03-22T08:10:49.829Z,99783.28
2023-03-22T08:11:36.947Z,99783.00
2023-03-22T08:12:23.925Z,99780.34
2023-03-22T08:13:10.776Z,99786.59
2023-03-22T08:13:57.686Z,99780.34
2023-03-22T08:14:48.400Z,99782.78
2023-03-22T08:15:37.613Z,99784.38
2023-03-22T08:16:24.573Z,99790.09
2023-03-22T08:17:11.666Z,99795.22
2023-03-22T08:17:58.634Z,99792.44
2023-03-22T08:18:45.745Z,99794.25
2023-03-22T08:19:34.006Z,99791.97
2023-03-22T08:20:20.926Z,99792.12
2023-03-22T08:21:08.057Z,99793.28
2023-03-22T08:21:54.972Z,99792.12
2023-03-22T08:22:42.634Z,99795.28
2023-03-22T08:23:40.974Z,99793.78
2023-03-22T08:24:28.563Z,99794.31
2023-03-22T08:25:15.774Z,99789.91
2023-03-22T08:26:02.859Z,99788.75
2023-03-22T08:26:52.573Z,99792.91
2023-03-22T08:27:39.592Z,99798.28
2023-03-22T08:28:26.638Z,99803.00
2023-03-22T08:29:13.515Z,99790.41
2023-03-22T08:30:01.162Z,99799.69
2023-03-22T08:30:48.886Z,99791.94
2023-03-22T08:31:35.828Z,99791.44
2023-03-22T08:32:22.688Z,99792.09
2023-03-22T08:33:09.504Z,99784.03
2023-03-22T08:33:56.424Z,99794.09
2023-03-22T08:34:43.877Z,99786.31
2023-03-22T08:35:32.908Z,99790.97
2023-03-22T08:36:22.950Z,99791.56
2023-03-22T08:37:11.242Z,99792.31
2023-03-22T08:37:58.334Z,99785.88
2023-03-22T08:38:45.574Z,99792.31
2023-03-22T08:39:33.053Z,99781.59
2023-03-22T08:40:20.125Z,99778.78
2023-03-22T08:41:07.246Z,99779.47
2023-03-22T08:41:54.115Z,99780.28
2023-03-22T08:42:41.175Z,99781.53
2023-03-22T08:43:28.096Z,99778.91
2023-03-22T08:44:14.977Z,99770.91
2023-03-22T08:45:01.923Z,99770.19
2023-03-22T08:45:51.045Z,99769.88
2023-03-22T08:46:37.935Z,99770.00
2023-03-22T08:47:24.791Z,99763.78
2023-03-22T08:48:11.779Z,99771.28
2023-03-22T08:49:00.577Z,99762.47
2023-03-22T08:49:47.432Z,99765.59
2023-03-22T08:50:35.163Z,99759.53
2023-03-22T08:51:23.199Z,99762.22
2023-03-22T08:52:10.728Z,99757.34
2023-03-22T08:52:58.265Z,99757.66
2023-03-22T08:53:45.740Z,99751.91
2023-03-22T08:54:37.550Z,99755.84
2023-03-22T08:55:25.132Z,99746.31
2023-03-22T08:56:15.136Z,99748.09
2023-03-22T08:57:03.550Z,99755.91
2023-03-22T08:57:50.775Z,99753.16
2023-03-22T08:58:37.690Z,99746.66
2023-03-22T08:59:24.605Z,99743.47
2023-03-22T09:00:13.872Z,99748.38
2023-03-22T09:01:00.920Z,99743.00
2023-03-22T09:01:52.002Z,99755.63
2023-03-22T09:02:38.902Z,99751.78
2023-03-22T09:03:25.974Z,99748.06
2023-03-22T09:04:12.873Z,99751.75
2023-03-22T09:04:59.812Z,99752.69
2023-03-22T09:05:46.954Z,99758.06
2023-03-22T09:06:34.474Z,99743.53
2023-03-22T09:07:21.677Z,99748.16
2023-03-22T09:08:08.922Z,99747.97
2023-03-22T09:08:56.389Z,99752.44
2023-03-22T09:09:43.789Z,99753.00
2023-03-22T09:10:30.732Z,99742.94
2023-03-22T09:11:18.209Z,99749.34
2023-03-22T09:12:05.476Z,99748.19
2023-03-22T09:12:54.372Z,99749.28
2023-03-22T09:13:41.254Z,99742.91
2023-03-22T09:14:28.230Z,99742.44
2023-03-22T09:15:15.232Z,99748.03
2023-03-22T09:16:02.175Z,99750.19
2023-03-22T09:16:49.152Z,99747.66
2023-03-22T09:17:36.601Z,99741.59
2023-03-22T09:18:28.664Z,99743.59
2023-03-22T09:19:15.669Z,99743.38
2023-03-22T09:20:12.149Z,99742.37
2023-03-22T09:20:59.948Z,99746.75
2023-03-22T09:21:46.771Z,99736.75
2023-03-22T09:22:33.920Z,99738.44
2023-03-22T09:23:21.011Z,99735.69
2023-03-22T09:24:08.796Z,99733.59
2023-03-22T09:24:55.711Z,99730.53
2023-03-22T09:25:46.451Z,99739.44
2023-03-22T09:26:33.247Z,99729.25
2023-03-22T09:27:20.132Z,99736.03
2023-03-22T09:28:07.167Z,99736.75
2023-03-22T09:28:56.221Z,99727.97
2023-03-22T09:29:43.130Z,99729.69
2023-03-22T09:30:30.562Z,99743.97
2023-03-22T09:31:20.350Z,99740.75
2023-03-22T09:32:07.509Z,99728.59
2023-03-22T09:32:54.998Z,99741.72
2023-03-22T09:33:42.404Z,99738.47
2023-03-22T09:34:29.544Z,99733.69
2023-03-22T09:35:16.770Z,99738.50
2023-03-22T09:36:04.274Z,99742.84
2023-03-22T09:36:53.002Z,99740.00
2023-03-22T09:37:39.948Z,99742.25
2023-03-22T09:38:27.476Z,99732.06
2023-03-22T09:39:16.643Z,99735.22
2023-03-22T09:40:06.031Z,99727.06
2023-03-22T09:41:01.808Z,99736.28
2023-03-22T09:42:01.359Z,99729.63
2023-03-22T09:42:53.009Z,99737.81
2023-03-22T09:43:42.851Z,99727.22